Time;durP1;ratioP1;P1;durP2;ratioP2;P2;SDS_P1;SDS_P2;PMS_P1;PMS_P2;Temp;Humidity;BMP_temperature;BMP_pressure;BME280_temperature;BME280_humidity;BME280_pressure;Samples;Min_cycle;Max_cycle;Signal;HPM_P1;HPM_P2
2021/09/02 00:00:48;;;;;;;10.43;7.05;;;18.90;92.50;;;;;;5034957;28;20474;-86
2021/09/02 00:03:14;;;;;;;9.93;6.82;;;18.90;92.80;;;;;;5031998;28;20041;-88
2021/09/02 00:05:40;;;;;;;11.57;6.90;;;18.90;92.50;;;;;;5050086;28;20029;-87
2021/09/02 00:08:06;;;;;;;10.20;7.00;;;18.90;92.70;;;;;;5016349;28;20025;-87
2021/09/02 00:10:32;;;;;;;10.10;6.93;;;18.90;92.50;;;;;;5029621;28;20466;-85
2021/09/02 00:12:58;;;;;;;11.18;6.78;;;18.80;92.40;;;;;;5038970;28;20026;-86
2021/09/02 00:15:23;;;;;;;11.63;7.05;;;18.80;92.50;;;;;;5031686;28;20032;-86
2021/09/02 00:17:49;;;;;;;9.50;6.28;;;18.80;92.50;;;;;;5033200;28;20029;-86
2021/09/02 00:20:15;;;;;;;10.50;6.47;;;18.80;92.50;;;;;;5039583;28;20044;-86
2021/09/02 00:22:41;;;;;;;10.43;6.85;;;18.80;92.60;;;;;;5033164;28;20076;-86
2021/09/02 00:25:07;;;;;;;8.85;6.00;;;18.80;92.60;;;;;;5051463;28;20018;-87
2021/09/02 00:27:33;;;;;;;9.95;6.75;;;18.80;92.60;;;;;;5032078;28;20026;-86
2021/09/02 00:29:58;;;;;;;9.73;5.97;;;18.80;92.60;;;;;;5040482;28;20044;-86
2021/09/02 00:32:24;;;;;;;9.63;6.75;;;18.80;92.60;;;;;;5042922;28;20554;-86
2021/09/02 00:34:50;;;;;;;11.30;6.82;;;18.80;92.70;;;;;;5052235;28;20565;-86
2021/09/02 00:37:15;;;;;;;10.13;6.78;;;18.80;92.60;;;;;;5026062;28;20049;-86
2021/09/02 00:39:41;;;;;;;10.43;6.32;;;18.80;92.60;;;;;;5068629;28;20032;-87
2021/09/02 00:42:06;;;;;;;9.10;6.15;;;18.70;92.60;;;;;;5072024;28;20029;-86
2021/09/02 00:44:37;;;;;;;11.55;6.60;;;18.70;92.60;;;;;;5039227;28;20036;-86
2021/09/02 00:47:05;;;;;;;10.05;6.40;;;18.70;92.60;;;;;;5035537;28;20492;-87
2021/09/02 00:49:31;;;;;;;9.07;5.78;;;18.70;92.70;;;;;;5067354;28;20024;-87
2021/09/02 00:51:59;;;;;;;8.80;6.18;;;18.70;92.60;;;;;;5046751;28;20025;-87
2021/09/02 00:54:25;;;;;;;8.93;6.70;;;18.70;92.70;;;;;;5035249;28;20057;-86
2021/09/02 00:56:51;;;;;;;9.35;6.07;;;18.70;92.70;;;;;;5044040;28;20546;-86
2021/09/02 00:59:16;;;;;;;10.90;6.47;;;18.70;92.70;;;;;;5052422;28;20021;-86
2021/09/02 01:01:42;;;;;;;12.20;6.90;;;18.70;92.70;;;;;;5053735;28;20060;-86
2021/09/02 01:04:08;;;;;;;10.38;6.90;;;18.70;92.70;;;;;;5051862;28;20036;-86
2021/09/02 01:06:33;;;;;;;10.18;6.53;;;18.60;92.70;;;;;;5055853;28;20040;-85
2021/09/02 01:08:59;;;;;;;9.50;6.05;;;18.60;92.70;;;;;;5046916;28;20052;-85
2021/09/02 01:11:25;;;;;;;9.52;6.18;;;18.60;92.70;;;;;;5034634;28;20481;-87
2021/09/02 01:13:51;;;;;;;11.57;6.65;;;18.60;92.70;;;;;;5018840;28;20032;-86
2021/09/02 01:16:16;;;;;;;10.68;6.93;;;18.60;92.80;;;;;;5015964;28;20478;-87
2021/09/02 01:18:42;;;;;;;9.98;6.43;;;18.60;92.80;;;;;;5058747;28;20053;-88
2021/09/02 01:21:07;;;;;;;9.27;6.38;;;18.60;92.80;;;;;;5053102;28;20043;-87
2021/09/02 01:23:38;;;;;;;10.00;6.88;;;18.60;92.80;;;;;;5058211;28;20037;-86
2021/09/02 01:26:18;;;;;;;10.40;6.63;;;18.60;92.90;;;;;;5057254;28;20120;-88
2021/09/02 01:28:43;;;;;;;13.30;8.27;;;18.60;92.90;;;;;;5072955;28;20028;-87
2021/09/02 01:31:14;;;;;;;10.50;7.55;;;18.60;92.90;;;;;;5059715;28;20050;-86
2021/09/02 01:33:44;;;;;;;15.40;7.43;;;18.50;92.90;;;;;;5066510;28;20072;-87
2021/09/02 01:36:10;;;;;;;9.90;7.68;;;18.50;92.80;;;;;;5045562;28;20263;-87
2021/09/02 01:38:36;;;;;;;12.88;7.75;;;18.50;92.80;;;;;;5022733;28;20060;-85
2021/09/02 01:41:02;;;;;;;10.45;7.65;;;18.50;92.90;;;;;;5055050;28;20036;-86
2021/09/02 01:43:27;;;;;;;10.60;7.60;;;18.50;92.90;;;;;;5005351;28;20079;-86
2021/09/02 01:45:53;;;;;;;11.07;7.85;;;18.50;92.90;;;;;;5054456;28;20025;-87
2021/09/02 01:48:19;;;;;;;12.68;8.00;;;18.40;92.90;;;;;;5025843;28;20025;-86
2021/09/02 01:50:45;;;;;;;9.85;7.22;;;18.40;92.90;;;;;;5038620;28;20033;-86
2021/09/02 01:53:13;;;;;;;9.25;7.03;;;18.40;92.90;;;;;;5038703;28;20025;-86
2021/09/02 01:55:40;;;;;;;11.32;7.03;;;18.40;92.90;;;;;;5044787;28;20021;-87
2021/09/02 01:58:06;;;;;;;13.52;7.88;;;18.40;93.00;;;;;;5038471;28;20017;-87
2021/09/02 02:00:36;;;;;;;12.15;7.82;;;18.40;93.00;;;;;;5054605;28;20128;-86
2021/09/02 02:03:02;;;;;;;13.38;7.75;;;18.40;93.00;;;;;;5057697;28;20110;-86
2021/09/02 02:05:28;;;;;;;10.75;7.45;;;18.40;93.00;;;;;;5038274;28;20043;-85
2021/09/02 02:07:53;;;;;;;12.18;7.93;;;18.40;93.10;;;;;;5043322;28;20470;-86
2021/09/02 02:10:22;;;;;;;11.30;8.13;;;18.30;93.10;;;;;;5056185;28;20041;-86
2021/09/02 02:12:48;;;;;;;11.52;8.23;;;18.30;93.00;;;;;;5055577;28;20109;-87
2021/09/02 02:15:14;;;;;;;13.00;7.78;;;18.30;93.00;;;;;;5042328;28;20112;-87
2021/09/02 02:17:41;;;;;;;12.30;8.05;;;18.30;93.00;;;;;;5055929;28;20029;-86
2021/09/02 02:20:08;;;;;;;10.98;7.43;;;18.30;93.00;;;;;;5037551;28;20071;-87
2021/09/02 02:22:34;;;;;;;13.00;8.55;;;18.30;93.10;;;;;;5051575;28;20116;-87
2021/09/02 02:28:21;;;;;;;10.70;7.13;;;18.30;93.20;;;;;;5077992;28;20035;-88
2021/09/02 02:30:47;;;;;;;13.57;7.88;;;18.20;93.10;;;;;;5049117;28;20478;-88
2021/09/02 02:33:13;;;;;;;13.55;7.47;;;18.20;93.10;;;;;;5044722;28;20059;-88
2021/09/02 02:35:38;;;;;;;11.70;7.45;;;18.20;93.10;;;;;;5066641;28;20032;-88
2021/09/02 02:38:04;;;;;;;10.13;7.13;;;18.20;93.10;;;;;;5040482;28;20146;-88
2021/09/02 02:40:29;;;;;;;11.75;7.30;;;18.20;93.10;;;;;;5023613;28;20020;-88
2021/09/02 02:42:56;;;;;;;9.15;6.45;;;18.20;93.20;;;;;;5040828;28;20025;-88
2021/09/02 02:45:22;;;;;;;11.80;6.90;;;18.20;93.20;;;;;;5024194;28;20137;-88
2021/09/02 02:47:47;;;;;;;11.13;6.60;;;18.20;93.20;;;;;;5040162;28;20020;-88
2021/09/02 02:50:13;;;;;;;9.80;7.05;;;18.20;93.20;;;;;;5023690;28;20021;-88
2021/09/02 02:52:39;;;;;;;9.35;6.40;;;18.20;93.30;;;;;;5040032;28;20077;-88
2021/09/02 02:55:05;;;;;;;9.00;6.28;;;18.20;93.30;;;;;;5036901;28;20090;-89
2021/09/02 02:57:30;;;;;;;11.10;6.45;;;18.10;93.30;;;;;;5056754;28;20115;-88
2021/09/02 02:59:56;;;;;;;10.20;6.25;;;18.20;93.30;;;;;;5020269;28;20612;-88
2021/09/02 03:02:22;;;;;;;11.05;6.95;;;18.10;93.30;;;;;;5040221;28;20033;-88
2021/09/02 03:04:47;;;;;;;10.02;6.93;;;18.10;93.30;;;;;;5050849;28;20019;-89
2021/09/02 03:07:13;;;;;;;10.93;6.57;;;18.10;93.30;;;;;;5029746;28;20171;-88
2021/09/02 03:09:39;;;;;;;11.77;7.10;;;18.10;93.40;;;;;;5036281;28;20478;-89
2021/09/02 03:12:05;;;;;;;11.43;6.90;;;18.20;93.40;;;;;;5039949;28;20017;-89
2021/09/02 03:14:31;;;;;;;12.13;7.88;;;18.20;93.40;;;;;;5039818;28;20025;-88
2021/09/02 03:16:57;;;;;;;11.90;7.90;;;18.10;93.40;;;;;;5026265;28;20051;-89
2021/09/02 03:19:22;;;;;;;12.15;7.35;;;18.20;93.40;;;;;;5044029;28;20061;-88
2021/09/02 03:21:48;;;;;;;11.85;7.43;;;18.10;93.40;;;;;;5056463;28;20035;-89
2021/09/02 03:24:14;;;;;;;10.95;7.55;;;18.10;93.70;;;;;;5056234;28;20017;-89
2021/09/02 03:26:39;;;;;;;11.80;7.57;;;18.10;93.50;;;;;;5023008;28;20036;-89
2021/09/02 03:29:05;;;;;;;11.85;8.45;;;18.10;93.50;;;;;;5019778;28;20036;-89
2021/09/02 03:31:31;;;;;;;12.70;8.00;;;18.10;93.50;;;;;;5039307;28;20119;-89
2021/09/02 03:33:56;;;;;;;13.90;8.40;;;18.10;93.50;;;;;;5023270;28;20025;-89
2021/09/02 03:36:22;;;;;;;13.05;8.27;;;18.10;93.60;;;;;;5040341;28;20036;-88
2021/09/02 03:38:48;;;;;;;11.15;7.90;;;18.10;93.60;;;;;;5055893;28;20028;-89
2021/09/02 03:41:13;;;;;;;12.13;8.27;;;18.10;93.60;;;;;;5039332;28;20037;-89
2021/09/02 03:43:39;;;;;;;13.80;8.15;;;18.10;93.60;;;;;;5039240;28;20027;-89
2021/09/02 03:46:05;;;;;;;11.73;7.60;;;18.10;93.60;;;;;;5018596;28;20432;-89
2021/09/02 03:48:30;;;;;;;12.10;7.65;;;18.10;93.60;;;;;;5039100;28;20596;-88
2021/09/02 03:50:56;;;;;;;12.15;7.78;;;18.10;93.60;;;;;;5039423;28;20484;-89
2021/09/02 03:53:22;;;;;;;12.10;8.35;;;18.10;93.60;;;;;;5039377;28;20477;-89
2021/09/02 03:55:47;;;;;;;12.00;7.68;;;18.10;93.70;;;;;;5052830;28;20024;-89
2021/09/02 03:58:13;;;;;;;10.55;8.10;;;18.10;93.70;;;;;;5019521;28;20033;-89
2021/09/02 04:00:39;;;;;;;11.45;7.45;;;18.10;93.70;;;;;;5049667;28;20482;-89
2021/09/02 04:03:04;;;;;;;13.52;8.00;;;18.10;93.70;;;;;;5043043;28;20020;-89
2021/09/02 04:05:30;;;;;;;11.48;8.35;;;18.10;93.70;;;;;;5039234;28;20428;-89
2021/09/02 04:07:56;;;;;;;9.82;7.95;;;18.00;93.70;;;;;;5038841;28;20115;-89
2021/09/02 04:10:21;;;;;;;12.93;8.23;;;18.00;93.60;;;;;;5039107;28;20040;-89
2021/09/02 04:12:47;;;;;;;11.77;8.25;;;18.00;93.60;;;;;;5038743;28;20028;-89
2021/09/02 04:15:13;;;;;;;13.23;7.97;;;18.00;93.60;;;;;;5055592;28;20028;-89
2021/09/02 04:17:38;;;;;;;13.20;8.23;;;18.00;93.60;;;;;;5037618;28;20054;-90
2021/09/02 04:20:05;;;;;;;13.30;7.47;;;18.00;93.80;;;;;;5006448;28;20102;-88
2021/09/02 04:22:30;;;;;;;12.95;8.88;;;18.00;93.60;;;;;;5054837;28;20024;-88
2021/09/02 04:24:56;;;;;;;13.68;8.65;;;18.00;93.60;;;;;;5072909;28;20056;-89
2021/09/02 04:27:22;;;;;;;12.77;9.00;;;18.00;93.60;;;;;;5038852;28;20056;-89
2021/09/02 04:29:47;;;;;;;12.50;8.73;;;18.00;93.60;;;;;;5022081;28;20017;-88
2021/09/02 04:32:13;;;;;;;14.98;9.07;;;17.90;93.60;;;;;;5038564;28;20039;-89
2021/09/02 04:34:39;;;;;;;15.52;9.57;;;17.90;93.60;;;;;;5021920;28;20021;-89
2021/09/02 04:37:06;;;;;;;12.48;8.57;;;17.90;93.60;;;;;;5055011;28;20059;-89
2021/09/02 04:39:32;;;;;;;14.25;8.60;;;17.90;93.60;;;;;;5054981;28;20109;-89
2021/09/02 04:41:58;;;;;;;15.10;9.10;;;17.90;93.60;;;;;;5059470;28;20036;-89
2021/09/02 04:44:23;;;;;;;13.63;9.38;;;17.90;93.70;;;;;;5039036;28;20021;-89
2021/09/02 04:46:49;;;;;;;14.88;9.50;;;18.00;93.70;;;;;;5015480;28;20647;-89
2021/09/02 04:49:15;;;;;;;15.43;9.57;;;17.90;93.70;;;;;;5035130;28;20025;-89
2021/09/02 04:51:40;;;;;;;14.65;8.93;;;17.90;93.70;;;;;;5046012;28;20052;-88
2021/09/02 04:54:06;;;;;;;13.70;8.70;;;17.90;93.70;;;;;;5038124;28;20028;-88
2021/09/02 04:56:32;;;;;;;15.35;8.40;;;17.90;93.70;;;;;;5021822;28;20021;-89
2021/09/02 04:58:57;;;;;;;12.60;8.68;;;17.90;93.70;;;;;;5038940;28;20060;-89
2021/09/02 05:01:23;;;;;;;14.27;9.18;;;17.80;93.70;;;;;;5029733;28;20474;-89
2021/09/02 05:03:48;;;;;;;13.27;9.07;;;17.80;93.70;;;;;;5039152;28;20017;-89
2021/09/02 05:06:14;;;;;;;14.45;8.98;;;17.80;93.70;;;;;;5022577;28;20017;-89
2021/09/02 05:08:40;;;;;;;13.90;8.90;;;17.80;93.70;;;;;;5050396;28;20028;-89
2021/09/02 05:11:05;;;;;;;15.20;9.05;;;17.80;93.70;;;;;;5041935;28;20024;-89
2021/09/02 05:13:31;;;;;;;14.20;9.20;;;17.80;93.70;;;;;;5048099;28;20093;-89
2021/09/02 05:15:57;;;;;;;13.57;9.25;;;17.80;93.70;;;;;;5047740;28;20033;-89
2021/09/02 05:18:22;;;;;;;16.50;10.02;;;17.80;93.60;;;;;;5055039;28;20430;-89
2021/09/02 05:20:48;;;;;;;14.40;9.18;;;17.80;93.60;;;;;;5050439;28;20021;-89
2021/09/02 05:23:14;;;;;;;18.15;9.80;;;17.80;93.50;;;;;;5038005;28;20016;-89
2021/09/02 05:25:39;;;;;;;16.48;9.70;;;17.80;93.60;;;;;;5041526;28;20037;-89
2021/09/02 05:28:05;;;;;;;15.30;9.10;;;17.70;93.60;;;;;;5041510;28;20016;-89
2021/09/02 05:30:30;;;;;;;16.88;10.00;;;17.70;93.50;;;;;;5041638;28;20454;-89
2021/09/02 05:32:56;;;;;;;17.95;10.40;;;17.80;93.50;;;;;;5039420;28;20040;-88
2021/09/02 05:35:22;;;;;;;17.27;9.88;;;17.70;93.40;;;;;;5055856;28;20041;-89
2021/09/02 05:37:47;;;;;;;17.35;10.35;;;17.70;93.50;;;;;;5083991;23;20113;-85
2021/09/02 05:40:13;;;;;;;17.17;10.52;;;17.70;93.50;;;;;;5057520;28;20044;-85
2021/09/02 05:42:39;;;;;;;18.25;10.00;;;17.70;93.50;;;;;;5053458;28;20025;-85
2021/09/02 05:45:06;;;;;;;17.27;10.20;;;17.70;93.50;;;;;;5063272;28;20008;-86
2021/09/02 05:47:31;;;;;;;18.73;10.20;;;17.70;93.50;;;;;;5070072;28;20040;-87
2021/09/02 05:49:57;;;;;;;16.25;10.38;;;17.70;93.50;;;;;;5067347;28;20021;-86
2021/09/02 05:52:23;;;;;;;15.55;9.57;;;17.70;93.60;;;;;;5059822;28;20059;-87
2021/09/02 05:54:53;;;;;;;18.42;10.23;;;17.60;93.50;;;;;;5072132;28;20517;-88
2021/09/02 05:57:22;;;;;;;14.93;9.50;;;17.60;93.60;;;;;;5063422;28;20040;-91
2021/09/02 05:59:48;;;;;;;15.43;9.40;;;17.60;93.70;;;;;;5075870;28;20018;-90
2021/09/02 06:02:14;;;;;;;20.65;10.13;;;17.60;93.70;;;;;;5079479;28;20031;-87
2021/09/02 06:04:39;;;;;;;15.10;8.93;;;17.60;93.80;;;;;;5030586;28;20021;-88
2021/09/02 06:07:05;;;;;;;13.85;8.90;;;17.60;93.80;;;;;;5057588;28;20388;-87
2021/09/02 06:09:31;;;;;;;16.15;9.45;;;17.70;93.80;;;;;;5056458;28;20456;-87
2021/09/02 06:11:56;;;;;;;13.13;8.70;;;17.60;93.80;;;;;;5075249;28;20032;-86
2021/09/02 06:14:22;;;;;;;14.15;8.75;;;17.60;93.80;;;;;;5029375;28;20036;-86
2021/09/02 06:16:48;;;;;;;15.15;8.90;;;17.70;93.90;;;;;;5073499;28;20017;-86
2021/09/02 06:19:13;;;;;;;12.38;8.13;;;17.70;93.90;;;;;;5031399;28;20404;-87
2021/09/02 06:21:39;;;;;;;17.02;8.30;;;17.70;93.90;;;;;;5075320;28;20055;-86
2021/09/02 06:24:05;;;;;;;18.98;8.73;;;17.70;93.90;;;;;;5076158;28;20021;-87
2021/09/02 06:26:31;;;;;;;11.98;7.82;;;17.70;93.90;;;;;;5043425;23;20055;-85
2021/09/02 06:28:57;;;;;;;14.55;8.98;;;17.70;93.90;;;;;;5056453;28;20032;-86
2021/09/02 06:31:22;;;;;;;12.18;8.15;;;17.70;93.90;;;;;;5038847;28;20041;-86
2021/09/02 06:33:48;;;;;;;11.77;7.85;;;17.70;94.00;;;;;;5053846;28;20370;-85
2021/09/02 06:36:13;;;;;;;12.38;7.50;;;17.70;94.00;;;;;;5044632;28;20037;-85
2021/09/02 06:38:39;;;;;;;11.52;7.88;;;17.80;94.10;;;;;;5033616;28;20390;-86
2021/09/02 06:41:05;;;;;;;15.73;8.38;;;17.80;94.00;;;;;;5037470;28;20638;-86
2021/09/02 06:43:30;;;;;;;11.68;7.22;;;17.80;93.90;;;;;;5051296;28;20019;-86
2021/09/02 06:45:56;;;;;;;11.57;7.70;;;17.80;93.90;;;;;;5056236;28;20448;-86
2021/09/02 06:48:22;;;;;;;12.35;8.18;;;17.80;93.90;;;;;;5055335;28;20055;-86
2021/09/02 06:50:47;;;;;;;11.73;7.10;;;17.80;93.80;;;;;;5044602;28;20767;-86
2021/09/02 06:53:13;;;;;;;12.55;7.60;;;17.90;93.80;;;;;;5036334;28;20065;-85
2021/09/02 06:55:39;;;;;;;12.07;7.45;;;17.80;93.90;;;;;;5055856;28;20056;-85
2021/09/02 06:58:04;;;;;;;12.23;7.30;;;17.80;93.90;;;;;;5055897;28;20381;-86
2021/09/02 07:00:30;;;;;;;13.10;7.10;;;17.90;93.90;;;;;;5039022;28;20119;-86
2021/09/02 07:02:55;;;;;;;13.05;7.60;;;17.90;93.90;;;;;;5039446;28;20020;-86
2021/09/02 07:05:22;;;;;;;11.57;7.05;;;17.90;93.80;;;;;;5051532;28;20021;-86
2021/09/02 07:07:48;;;;;;;15.73;8.85;;;17.90;93.70;;;;;;5055133;28;20378;-86
2021/09/02 07:10:14;;;;;;;14.27;8.77;;;17.90;93.60;;;;;;5047335;28;20025;-85
2021/09/02 07:12:42;;;;;;;14.77;8.85;;;17.90;93.50;;;;;;5039044;28;20028;-85
2021/09/02 07:15:08;;;;;;;13.55;7.28;;;17.90;93.40;;;;;;5039262;28;20359;-86
2021/09/02 07:17:34;;;;;;;14.23;7.97;;;17.90;93.30;;;;;;5038855;28;20032;-86
2021/09/02 07:19:59;;;;;;;14.10;8.30;;;17.90;93.30;;;;;;5045393;28;20482;-86
2021/09/02 07:22:25;;;;;;;13.25;7.57;;;17.90;93.20;;;;;;5035489;28;20037;-86
2021/09/02 07:24:51;;;;;;;12.55;6.75;;;17.90;93.40;;;;;;5055170;28;20027;-86
2021/09/02 07:27:17;;;;;;;10.70;6.70;;;18.00;93.40;;;;;;5055062;28;20119;-85
2021/09/02 07:29:43;;;;;;;11.88;6.15;;;18.00;93.50;;;;;;5055316;28;20021;-86
2021/09/02 07:32:08;;;;;;;12.20;6.15;;;18.00;93.50;;;;;;5070609;28;20035;-86
2021/09/02 07:34:34;;;;;;;10.05;6.45;;;18.10;93.60;;;;;;5055078;28;20102;-86
2021/09/02 07:37:01;;;;;;;12.48;6.50;;;18.10;93.80;;;;;;5035173;28;20048;-86
2021/09/02 07:39:27;;;;;;;9.68;5.50;;;18.10;93.60;;;;;;5055101;28;20024;-85
2021/09/02 07:41:53;;;;;;;9.85;5.13;;;18.20;93.40;;;;;;5051777;28;20032;-81
2021/09/02 07:44:18;;;;;;;11.73;5.82;;;18.20;93.20;;;;;;5072388;28;20350;-80
2021/09/02 07:46:44;;;;;;;11.48;5.72;;;18.20;93.00;;;;;;5055167;28;20032;-79
2021/09/02 07:49:10;;;;;;;8.10;4.68;;;18.20;92.90;;;;;;5072562;28;20021;-80
2021/09/02 07:51:35;;;;;;;9.18;5.07;;;18.30;92.90;;;;;;5072898;28;20059;-80
2021/09/02 07:54:01;;;;;;;10.50;4.80;;;18.30;92.80;;;;;;5036141;28;20029;-80
2021/09/02 07:56:29;;;;;;;9.60;5.13;;;18.30;92.60;;;;;;5072730;28;20024;-80
2021/09/02 07:58:55;;;;;;;9.57;5.10;;;18.30;92.50;;;;;;5054909;28;20086;-79
2021/09/02 08:01:24;;;;;;;10.73;5.05;;;18.40;92.40;;;;;;5020824;28;20017;-80
2021/09/02 08:03:49;;;;;;;8.88;4.97;;;18.40;92.40;;;;;;5064612;28;20036;-80
2021/09/02 08:06:15;;;;;;;10.68;4.72;;;18.50;92.30;;;;;;5072105;28;20020;-81
2021/09/02 08:08:41;;;;;;;8.60;4.40;;;18.50;92.20;;;;;;5053756;28;20075;-80
2021/09/02 08:11:06;;;;;;;8.60;4.45;;;18.60;92.20;;;;;;5054485;28;20078;-79
2021/09/02 08:13:32;;;;;;;8.13;4.80;;;18.60;92.20;;;;;;5054579;28;20032;-79
2021/09/02 08:15:58;;;;;;;8.35;4.40;;;18.70;92.10;;;;;;5034446;28;20036;-80
2021/09/02 08:18:23;;;;;;;8.25;4.00;;;18.70;92.20;;;;;;5071774;28;20040;-79
2021/09/02 08:20:49;;;;;;;8.98;4.45;;;18.80;92.20;;;;;;5072338;28;20033;-85
2021/09/02 08:23:16;;;;;;;11.07;5.05;;;18.80;92.10;;;;;;5034226;28;20445;-86
2021/09/02 08:25:42;;;;;;;9.25;4.72;;;18.90;92.00;;;;;;5054247;28;20481;-85
2021/09/02 08:28:08;;;;;;;8.07;4.18;;;19.00;91.90;;;;;;5031090;28;20049;-83
2021/09/02 08:30:34;;;;;;;9.05;4.63;;;19.00;91.90;;;;;;5030131;28;20033;-83
2021/09/02 08:32:59;;;;;;;8.90;4.68;;;19.10;91.70;;;;;;5054988;28;20549;-83
2021/09/02 08:35:27;;;;;;;10.48;5.05;;;19.10;91.70;;;;;;5034086;28;20385;-83
2021/09/02 08:37:56;;;;;;;7.32;4.38;;;19.20;91.70;;;;;;5035130;28;20048;-84
2021/09/02 08:40:27;;;;;;;10.85;5.22;;;19.30;91.50;;;;;;5045829;28;20021;-83
2021/09/02 08:42:54;;;;;;;11.52;5.75;;;19.30;91.20;;;;;;5054195;28;20024;-84
2021/09/02 08:45:25;;;;;;;10.45;5.20;;;19.40;90.80;;;;;;5036475;28;20048;-83
2021/09/02 08:47:51;;;;;;;8.70;4.93;;;19.40;90.70;;;;;;5038002;28;20043;-83
2021/09/02 08:50:51;;;;;;;9.65;5.00;;;19.40;90.60;;;;;;5035104;28;20083;-84
2021/09/02 08:53:17;;;;;;;8.70;4.90;;;19.40;90.20;;;;;;5054046;28;20033;-83
2021/09/02 08:55:42;;;;;;;12.02;5.95;;;19.50;90.40;;;;;;5026907;28;20032;-83
2021/09/02 08:58:08;;;;;;;10.35;5.82;;;19.50;90.30;;;;;;5054322;28;20032;-82
2021/09/02 09:00:34;;;;;;;10.63;5.57;;;19.50;90.00;;;;;;5020801;28;20126;-83
2021/09/02 09:03:04;;;;;;;10.27;5.72;;;19.60;89.80;;;;;;5034012;28;20025;-79
2021/09/02 09:05:32;;;;;;;9.68;5.13;;;19.60;90.10;;;;;;5053809;28;20478;-78
2021/09/02 09:08:16;;;;;;;8.25;5.90;;;19.70;90.20;;;;;;5071974;28;20025;-79
2021/09/02 09:10:41;;;;;;;9.77;5.82;;;19.80;90.10;;;;;;5038769;28;20033;-79
2021/09/02 09:13:08;;;;;;;9.38;5.68;;;19.80;89.80;;;;;;5024079;28;20038;-78
2021/09/02 09:15:39;;;;;;;10.45;5.80;;;19.90;89.70;;;;;;5062137;28;20028;-78
2021/09/02 09:18:21;;;;;;;;;;;19.90;89.60;;;;;;5040073;28;20063;-79
2021/09/02 09:21:16;;;;;;;9.43;5.85;;;20.00;90.00;;;;;;5053670;28;19912;-78
2021/09/02 09:23:52;;;;;;;10.30;6.00;;;20.10;89.80;;;;;;5035738;28;20025;-78
2021/09/02 09:26:19;;;;;;;8.18;5.07;;;20.20;90.00;;;;;;5043831;28;20049;-79
2021/09/02 09:28:44;;;;;;;10.70;5.80;;;20.20;90.10;;;;;;5051553;28;20028;-78
2021/09/02 09:31:28;;;;;;;9.52;5.50;;;20.30;90.10;;;;;;5035709;28;20032;-78
2021/09/02 09:33:56;;;;;;;12.00;6.07;;;20.40;89.80;;;;;;5067465;28;20024;-79
2021/09/02 09:36:27;;;;;;;9.60;5.45;;;20.50;89.70;;;;;;5066012;28;20124;-84
2021/09/02 09:39:13;;;;;;;8.90;5.38;;;20.50;89.20;;;;;;5067240;28;20034;-84
2021/09/02 09:41:46;;;;;;;9.40;5.63;;;20.60;87.70;;;;;;5051716;28;20192;-84
2021/09/02 09:44:21;;;;;;;9.77;5.63;;;20.70;87.80;;;;;;5053239;28;20100;-84
2021/09/02 09:47:21;;;;;;;7.88;4.88;;;20.70;87.20;;;;;;5056620;28;20412;-84
2021/09/02 09:49:56;;;;;;;9.32;5.53;;;20.70;87.40;;;;;;5039383;28;20048;-85
2021/09/02 09:52:31;;;;;;;8.45;5.10;;;20.70;87.30;;;;;;5042678;28;20031;-84
2021/09/02 09:55:06;;;;;;;11.70;5.55;;;20.70;87.60;;;;;;5041377;28;20021;-84
2021/09/02 09:57:33;;;;;;;8.77;5.53;;;20.80;87.10;;;;;;5065880;28;20139;-84
2021/09/02 10:00:09;;;;;;;10.93;5.50;;;20.80;87.20;;;;;;5034438;28;20394;-84
2021/09/02 10:02:36;;;;;;;10.52;6.18;;;20.90;87.00;;;;;;5044259;28;20029;-84
2021/09/02 10:05:08;;;;;;;8.52;5.13;;;20.90;86.30;;;;;;5056935;28;20048;-84
2021/09/02 10:07:35;;;;;;;8.18;5.13;;;21.00;86.50;;;;;;5056305;28;20028;-84
2021/09/02 10:10:06;;;;;;;10.68;4.70;;;21.00;86.60;;;;;;5032399;28;20326;-84
2021/09/02 10:12:36;;;;;;;8.70;5.43;;;21.10;86.60;;;;;;5053666;28;20462;-84
2021/09/02 10:15:20;;;;;;;9.65;5.47;;;21.20;86.30;;;;;;5047169;28;20025;-84
2021/09/02 10:17:47;;;;;;;10.43;5.20;;;21.30;85.80;;;;;;5052961;28;20028;-83
2021/09/02 10:20:17;;;;;;;10.75;4.82;;;21.30;85.60;;;;;;5056788;28;20111;-84
2021/09/02 10:22:44;;;;;;;8.38;4.78;;;21.40;85.70;;;;;;5060072;28;20021;-84
2021/09/02 10:28:01;;;;;;;9.70;5.32;;;21.40;83.00;;;;;;5069680;28;20532;-84
2021/09/02 10:30:27;;;;;;;6.60;4.60;;;21.40;84.00;;;;;;5051387;28;20067;-83
2021/09/02 10:32:55;;;;;;;11.35;5.38;;;21.50;84.40;;;;;;5066849;28;20546;-84
2021/09/02 10:35:29;;;;;;;10.52;4.65;;;21.50;84.30;;;;;;5038029;28;20033;-84
2021/09/02 10:37:55;;;;;;;9.38;5.30;;;21.60;84.30;;;;;;5054944;28;20025;-83
2021/09/02 10:40:21;;;;;;;7.57;4.63;;;21.60;84.00;;;;;;5058546;28;20067;-84
2021/09/02 10:42:53;;;;;;;7.60;4.18;;;21.70;84.10;;;;;;5074699;28;20098;-84
2021/09/02 10:45:28;;;;;;;8.23;4.82;;;21.70;83.70;;;;;;5070570;28;20054;-84
2021/09/02 10:48:15;;;;;;;6.93;4.55;;;21.80;83.60;;;;;;5074011;28;20070;-85
2021/09/02 10:50:43;;;;;;;8.13;4.53;;;21.80;84.00;;;;;;5073796;28;20473;-84
2021/09/02 10:53:17;;;;;;;8.00;5.05;;;21.80;84.10;;;;;;5060884;28;20028;-85
2021/09/02 10:55:52;;;;;;;9.15;4.93;;;21.90;84.10;;;;;;5039475;28;20028;-85
2021/09/02 10:58:49;;;;;;;8.90;4.47;;;21.90;83.60;;;;;;5072555;28;20024;-85
2021/09/02 11:01:41;;;;;;;9.32;5.15;;;22.00;83.00;;;;;;5059989;28;20029;-84
2021/09/02 11:04:12;;;;;;;8.27;4.40;;;22.00;82.00;;;;;;5046833;28;20014;-85
2021/09/02 11:06:48;;;;;;;8.70;5.60;;;22.00;82.80;;;;;;5031320;28;20013;-85
2021/09/02 11:09:30;;;;;;;8.95;5.13;;;22.00;81.40;;;;;;5029167;28;20082;-84
2021/09/02 11:11:56;;;;;;;10.10;4.32;;;22.00;82.00;;;;;;5053961;28;20031;-84
2021/09/02 11:14:22;;;;;;;9.07;5.00;;;22.10;82.50;;;;;;5066914;28;20112;-84
2021/09/02 11:16:48;;;;;;;8.50;4.78;;;22.10;82.20;;;;;;5037643;28;20119;-84
2021/09/02 11:19:14;;;;;;;8.70;4.95;;;22.10;81.70;;;;;;5028726;28;20652;-84
2021/09/02 11:21:39;;;;;;;9.70;5.00;;;22.20;81.90;;;;;;5036818;28;20485;-85
2021/09/02 11:24:11;;;;;;;8.85;4.97;;;22.20;81.20;;;;;;5050388;28;20052;-84
2021/09/02 11:26:42;;;;;;;7.22;3.92;;;22.20;81.20;;;;;;5055479;28;20119;-85
2021/09/02 11:29:19;;;;;;;7.00;4.65;;;22.30;81.60;;;;;;5041785;28;20025;-85
2021/09/02 11:32:04;;;;;;;8.93;4.82;;;22.30;80.60;;;;;;5049367;28;20422;-86
2021/09/02 11:34:34;;;;;;;8.02;4.10;;;22.30;80.60;;;;;;5047923;28;20167;-85
2021/09/02 11:37:00;;;;;;;7.63;4.55;;;22.40;81.10;;;;;;5047805;28;20020;-85
2021/09/02 11:39:28;;;;;;;6.40;3.80;;;22.40;80.60;;;;;;5035391;28;20021;-85
2021/09/02 11:42:06;;;;;;;7.72;4.65;;;22.50;80.60;;;;;;5055944;28;20037;-86
2021/09/02 11:44:35;;;;;;;8.60;4.78;;;22.50;80.80;;;;;;5052266;28;20012;-85
2021/09/02 11:47:12;;;;;;;6.88;3.90;;;22.60;80.70;;;;;;5055762;28;20495;-86
2021/09/02 11:49:39;;;;;;;7.70;3.97;;;22.60;80.20;;;;;;5037717;28;20480;-85
2021/09/02 11:52:06;;;;;;;10.60;4.50;;;22.70;79.90;;;;;;5040266;28;20417;-86
2021/09/02 11:54:36;;;;;;;7.40;4.80;;;22.80;79.60;;;;;;5036129;28;20123;-85
2021/09/02 11:57:02;;;;;;;8.15;4.45;;;22.80;79.30;;;;;;5022698;28;20164;-86
2021/09/02 11:59:28;;;;;;;7.00;4.47;;;22.90;78.80;;;;;;5045983;28;20028;-86
2021/09/02 12:01:55;;;;;;;7.82;4.00;;;22.90;78.90;;;;;;5063835;28;20028;-86
2021/09/02 12:04:27;;;;;;;7.82;4.40;;;23.00;79.30;;;;;;5033789;28;20382;-86
2021/09/02 12:06:59;;;;;;;7.40;4.20;;;23.10;79.40;;;;;;5055287;28;20040;-87
2021/09/02 12:09:31;;;;;;;10.02;5.28;;;23.10;79.20;;;;;;5055794;28;20048;-86
2021/09/02 12:11:57;;;;;;;8.25;4.70;;;23.20;77.60;;;;;;5068807;28;20024;-86
2021/09/02 12:14:28;;;;;;;10.57;4.78;;;23.20;77.30;;;;;;5039376;28;20461;-86
2021/09/02 12:17:09;;;;;;;7.78;4.57;;;23.30;77.70;;;;;;5037232;28;20466;-81
2021/09/02 12:19:53;;;;;;;7.68;4.38;;;23.30;77.90;;;;;;5068880;28;20021;-80
2021/09/02 12:22:21;;;;;;;9.00;4.57;;;23.30;77.50;;;;;;5062122;28;20028;-81
2021/09/02 12:24:47;;;;;;;8.25;4.43;;;23.40;77.50;;;;;;5040370;28;20021;-80
2021/09/02 12:27:13;;;;;;;8.13;4.55;;;23.50;77.20;;;;;;5043725;28;20052;-80
2021/09/02 12:29:47;;;;;;;7.57;4.85;;;23.50;76.80;;;;;;5023865;28;20050;-80
2021/09/02 12:32:20;;;;;;;8.35;4.30;;;23.60;77.20;;;;;;5036734;28;20111;-81
2021/09/02 12:34:47;;;;;;;8.88;4.50;;;23.60;77.20;;;;;;5035711;28;20104;-80
2021/09/02 12:37:15;;;;;;;8.98;4.47;;;23.70;77.00;;;;;;5046594;28;20505;-80
2021/09/02 12:39:51;;;;;;;7.97;4.05;;;23.70;76.50;;;;;;5051640;28;20020;-80
2021/09/02 12:42:35;;;;;;;8.93;4.40;;;23.70;76.00;;;;;;5072121;28;20044;-80
2021/09/02 12:45:08;;;;;;;7.18;4.38;;;23.80;76.00;;;;;;5038805;28;20021;-80
2021/09/02 12:47:34;;;;;;;7.75;4.38;;;23.80;75.70;;;;;;5073236;28;20024;-79
2021/09/02 12:50:01;;;;;;;7.10;4.40;;;23.80;75.50;;;;;;5031495;28;20348;-80